Time;durP1;ratioP1;P1;durP2;ratioP2;P2;SDS_P1;SDS_P2;PMS_P1;PMS_P2;Temp;Humidity;BMP_temperature;BMP_pressure;BME280_temperature;BME280_humidity;BME280_pressure;Samples;Min_cycle;Max_cycle;Signal;HPM_P1;HPM_P2
2022/09/18 00:01:15;;;;;;;1.73;1.60;;;13.00;77.90;;;;;;5073678;28;20500;-48
2022/09/18 00:03:42;;;;;;;4.40;1.63;;;13.00;77.70;;;;;;5077024;28;20448;-48
2022/09/18 00:06:12;;;;;;;2.30;1.40;;;13.00;77.90;;;;;;5074595;28;20501;-48
2022/09/18 00:08:39;;;;;;;3.27;1.50;;;13.00;78.00;;;;;;5055475;28;20589;-48
2022/09/18 00:11:08;;;;;;;3.70;1.30;;;13.00;77.50;;;;;;5057714;28;20453;-48
2022/09/18 00:13:36;;;;;;;1.30;1.20;;;13.00;77.60;;;;;;5077212;28;20516;-48
2022/09/18 00:16:05;;;;;;;5.50;1.47;;;13.00;77.80;;;;;;5075601;28;20590;-48
2022/09/18 00:18:32;;;;;;;4.77;1.70;;;13.00;78.20;;;;;;5060162;28;20457;-48
2022/09/18 00:21:07;;;;;;;3.73;1.40;;;12.90;78.60;;;;;;5057124;28;20855;-48
2022/09/18 00:23:34;;;;;;;1.40;1.30;;;13.00;77.70;;;;;;5075497;28;20953;-48
2022/09/18 00:26:01;;;;;;;3.60;1.50;;;13.00;77.60;;;;;;5076846;28;20533;-48
2022/09/18 00:28:28;;;;;;;7.10;1.87;;;13.00;77.40;;;;;;5060668;28;20490;-48
2022/09/18 00:30:54;;;;;;;4.17;1.57;;;13.00;77.40;;;;;;5060123;28;20469;-48
2022/09/18 00:33:21;;;;;;;3.30;1.70;;;13.00;77.40;;;;;;5072854;28;20549;-48
2022/09/18 00:35:47;;;;;;;4.40;1.60;;;13.00;77.30;;;;;;5075734;28;20510;-48
2022/09/18 00:38:14;;;;;;;4.67;1.23;;;13.00;77.20;;;;;;5057012;28;21041;-48
2022/09/18 00:40:41;;;;;;;1.90;1.33;;;13.10;76.80;;;;;;5060244;28;20958;-48
2022/09/18 00:43:21;;;;;;;2.70;1.03;;;13.10;76.70;;;;;;5074137;28;21048;-48
2022/09/18 00:45:58;;;;;;;5.33;1.33;;;13.10;76.70;;;;;;5075431;28;20460;-48
2022/09/18 00:48:36;;;;;;;1.40;1.30;;;13.10;76.50;;;;;;5066265;28;20460;-48
2022/09/18 00:51:03;;;;;;;1.93;1.23;;;13.00;77.00;;;;;;5075485;28;20489;-48
2022/09/18 00:53:30;;;;;;;4.60;1.50;;;13.10;76.80;;;;;;5079361;28;20485;-48
2022/09/18 00:55:58;;;;;;;2.90;1.30;;;13.10;76.60;;;;;;5077797;28;20488;-48
2022/09/18 00:58:24;;;;;;;2.33;1.23;;;13.10;76.50;;;;;;5079707;28;20869;-48
2022/09/18 01:00:54;;;;;;;3.03;1.40;;;13.10;76.40;;;;;;5054571;28;20488;-48
2022/09/18 01:03:21;;;;;;;3.13;1.40;;;13.20;76.20;;;;;;5076187;28;20522;-48
2022/09/18 01:06:09;;;;;;;5.40;1.27;;;13.10;76.50;;;;;;5060020;28;20531;-49
2022/09/18 01:08:59;;;;;;;3.00;0.93;;;13.10;76.80;;;;;;5077921;28;21029;-48
2022/09/18 01:11:50;;;;;;;2.30;1.17;;;13.10;76.40;;;;;;5064893;28;20947;-49
2022/09/18 01:15:03;;;;;;;1.80;1.17;;;13.10;76.20;;;;;;5057970;28;20520;-48
2022/09/18 01:17:43;;;;;;;1.70;1.30;;;13.10;76.40;;;;;;5070344;28;20504;-48
2022/09/18 01:20:34;;;;;;;2.87;1.53;;;13.10;76.40;;;;;;5077281;28;20452;-48
2022/09/18 01:23:36;;;;;;;1.30;1.20;;;13.10;76.30;;;;;;5080491;28;20493;-48
2022/09/18 01:26:43;;;;;;;2.90;2.07;;;13.20;76.30;;;;;;5057321;28;20449;-48
2022/09/18 01:29:23;;;;;;;2.40;1.23;;;13.10;76.70;;;;;;5077634;28;20456;-48
2022/09/18 01:32:07;;;;;;;2.17;1.30;;;13.10;76.10;;;;;;5071861;28;20484;-48
2022/09/18 01:34:53;;;;;;;6.07;1.27;;;13.10;76.50;;;;;;5075609;28;20481;-48
2022/09/18 01:37:39;;;;;;;3.30;1.17;;;13.10;76.70;;;;;;5075224;28;20496;-48
2022/09/18 01:40:16;;;;;;;2.73;1.00;;;13.10;76.50;;;;;;5075768;28;20484;-48
2022/09/18 01:42:46;;;;;;;1.03;0.93;;;13.10;76.70;;;;;;5079039;28;20855;-48
2022/09/18 01:45:21;;;;;;;3.60;1.17;;;13.10;76.60;;;;;;5085620;28;20484;-48
2022/09/18 01:48:06;;;;;;;4.60;0.90;;;13.10;76.70;;;;;;5075718;28;20453;-48
2022/09/18 01:50:38;;;;;;;1.10;1.00;;;13.10;76.70;;;;;;5061999;28;20507;-48
2022/09/18 01:53:20;;;;;;;2.03;1.10;;;13.10;76.40;;;;;;5044044;28;20956;-48
2022/09/18 01:55:58;;;;;;;2.30;1.17;;;13.20;76.50;;;;;;5078795;28;20886;-48
2022/09/18 01:58:27;;;;;;;1.60;1.20;;;13.20;76.60;;;;;;5060623;28;20476;-48
2022/09/18 02:00:58;;;;;;;1.80;1.17;;;13.20;76.50;;;;;;5056124;28;20904;-48
2022/09/18 02:03:35;;;;;;;1.27;1.07;;;13.20;76.50;;;;;;5075081;28;20442;-48
2022/09/18 02:06:05;;;;;;;5.60;1.10;;;13.20;77.10;;;;;;5077127;28;20501;-48
2022/09/18 02:08:42;;;;;;;1.47;0.83;;;13.20;77.00;;;;;;5078259;28;20509;-48
2022/09/18 02:11:11;;;;;;;2.40;1.17;;;13.20;77.10;;;;;;5056535;28;20461;-48
2022/09/18 02:13:46;;;;;;;2.63;0.80;;;13.20;77.40;;;;;;5080124;28;20489;-48
2022/09/18 02:16:22;;;;;;;1.23;0.80;;;13.10;77.70;;;;;;5062339;28;21037;-48
2022/09/18 02:18:52;;;;;;;6.80;0.90;;;13.10;77.70;;;;;;5062340;28;20437;-48
2022/09/18 02:21:25;;;;;;;1.40;1.27;;;13.10;77.30;;;;;;5065791;28;20461;-48
2022/09/18 02:23:56;;;;;;;3.57;1.03;;;13.20;77.00;;;;;;5065453;28;20469;-48
2022/09/18 02:26:23;;;;;;;1.60;1.20;;;13.20;76.90;;;;;;5077514;28;20492;-48
2022/09/18 02:28:52;;;;;;;2.00;0.70;;;13.20;76.80;;;;;;5063681;28;20445;-48
2022/09/18 02:31:19;;;;;;;3.63;0.80;;;13.20;76.70;;;;;;5059690;28;20465;-48
2022/09/18 02:33:46;;;;;;;3.23;0.80;;;13.20;76.60;;;;;;5073996;28;20562;-48
2022/09/18 02:36:31;;;;;;;2.63;1.00;;;13.20;76.30;;;;;;5078618;28;20449;-48
2022/09/18 02:39:17;;;;;;;0.97;0.80;;;13.30;76.00;;;;;;5074864;28;21509;-48
2022/09/18 02:42:10;;;;;;;2.10;0.80;;;13.20;76.20;;;;;;5076944;28;20511;-48
2022/09/18 02:45:14;;;;;;;2.30;0.93;;;13.20;76.30;;;;;;5075540;28;20557;-48
2022/09/18 02:48:19;;;;;;;2.00;1.27;;;13.20;76.10;;;;;;5077471;28;20453;-48
2022/09/18 02:50:45;;;;;;;0.90;0.80;;;13.30;76.00;;;;;;5050764;28;20518;-48
2022/09/18 02:53:22;;;;;;;5.97;1.03;;;13.20;76.10;;;;;;5075896;28;20521;-48
2022/09/18 02:56:20;;;;;;;4.03;1.00;;;13.20;76.10;;;;;;5062235;28;20883;-48
2022/09/18 02:58:56;;;;;;;1.57;0.67;;;13.30;75.80;;;;;;5038835;28;20473;-46
2022/09/18 03:01:25;;;;;;;3.23;0.83;;;13.30;75.90;;;;;;5067680;28;20473;-46
2022/09/18 03:03:52;;;;;;;1.33;0.60;;;13.20;76.10;;;;;;5067196;28;20519;-45
2022/09/18 03:06:19;;;;;;;1.53;0.90;;;13.20;76.30;;;;;;5057744;28;20505;-46
2022/09/18 03:08:45;;;;;;;3.50;1.00;;;13.20;76.20;;;;;;5073392;28;20500;-45
2022/09/18 03:11:12;;;;;;;1.33;1.10;;;13.20;76.40;;;;;;5077167;28;20477;-46
2022/09/18 03:13:39;;;;;;;0.80;0.80;;;13.20;76.40;;;;;;5077248;28;20891;-45
2022/09/18 03:16:05;;;;;;;1.80;0.97;;;13.20;76.00;;;;;;5074766;28;20516;-45
2022/09/18 03:18:32;;;;;;;1.50;1.07;;;13.20;76.30;;;;;;5078237;28;20519;-46
2022/09/18 03:20:59;;;;;;;1.27;0.73;;;13.20;76.30;;;;;;5074366;28;20464;-46
2022/09/18 03:23:25;;;;;;;1.80;0.70;;;13.20;76.40;;;;;;5076782;28;20878;-46
2022/09/18 03:25:52;;;;;;;1.13;0.80;;;13.20;76.50;;;;;;5077029;28;20562;-45
2022/09/18 03:28:18;;;;;;;1.27;0.77;;;13.20;76.60;;;;;;5078891;28;20479;-46
2022/09/18 03:30:45;;;;;;;3.70;0.90;;;13.20;76.60;;;;;;5057965;28;20953;-46
2022/09/18 03:33:12;;;;;;;1.30;0.67;;;13.20;76.60;;;;;;5060010;28;20997;-46
2022/09/18 03:35:39;;;;;;;2.10;0.80;;;13.20;76.60;;;;;;5057474;28;21025;-46
2022/09/18 03:38:05;;;;;;;0.73;0.73;;;13.20;76.50;;;;;;5076426;28;20485;-46
2022/09/18 03:40:32;;;;;;;2.10;0.70;;;13.20;76.10;;;;;;5075024;28;20464;-45
2022/09/18 03:42:59;;;;;;;1.07;0.80;;;13.20;76.10;;;;;;5075374;28;20979;-45
2022/09/18 03:45:25;;;;;;;3.33;0.73;;;13.10;76.50;;;;;;5076984;28;20838;-48
2022/09/18 03:47:52;;;;;;;1.23;0.60;;;13.10;76.20;;;;;;5074058;28;20450;-48
2022/09/18 03:50:19;;;;;;;0.90;0.90;;;13.20;76.10;;;;;;5062045;28;20461;-48
2022/09/18 03:52:47;;;;;;;1.90;0.83;;;13.20;76.20;;;;;;5058849;28;20491;-46
2022/09/18 03:55:17;;;;;;;1.50;1.40;;;13.20;76.30;;;;;;5075604;28;20441;-46
2022/09/18 03:57:45;;;;;;;1.13;0.80;;;13.20;76.10;;;;;;5066983;28;20468;-45
2022/09/18 04:00:13;;;;;;;3.80;1.20;;;13.20;76.00;;;;;;5075533;28;20449;-48
2022/09/18 04:02:40;;;;;;;2.67;0.53;;;13.20;75.90;;;;;;5076732;28;20483;-48
2022/09/18 04:05:08;;;;;;;1.63;0.70;;;13.20;75.60;;;;;;5059762;28;20943;-48
2022/09/18 04:07:35;;;;;;;2.47;0.63;;;13.20;75.80;;;;;;5073495;28;20550;-48
2022/09/18 04:10:02;;;;;;;4.67;0.80;;;13.20;75.90;;;;;;5071907;28;20488;-48
2022/09/18 04:12:29;;;;;;;1.27;0.70;;;13.20;75.80;;;;;;5059731;28;20449;-48
2022/09/18 04:14:55;;;;;;;0.97;0.77;;;13.20;75.80;;;;;;5061432;28;20538;-48
2022/09/18 04:17:22;;;;;;;1.77;1.00;;;13.20;76.10;;;;;;5073096;28;20502;-48
2022/09/18 04:19:49;;;;;;;2.80;0.60;;;13.20;75.70;;;;;;5073908;28;20442;-48
2022/09/18 04:22:20;;;;;;;1.70;0.80;;;13.20;75.80;;;;;;5074987;28;20466;-48
2022/09/18 04:24:49;;;;;;;1.53;0.60;;;13.20;76.00;;;;;;5057656;28;20441;-48
2022/09/18 04:27:15;;;;;;;1.57;0.50;;;13.20;75.90;;;;;;5076289;28;20966;-47
2022/09/18 04:29:42;;;;;;;1.60;0.70;;;13.20;76.20;;;;;;5075372;28;20504;-47
2022/09/18 04:32:09;;;;;;;1.17;0.80;;;13.20;75.90;;;;;;5077800;28;20496;-47
2022/09/18 04:34:35;;;;;;;1.00;0.90;;;13.20;75.80;;;;;;5077994;28;20898;-47
2022/09/18 04:37:02;;;;;;;1.10;0.70;;;13.20;75.90;;;;;;5078053;28;20497;-47
2022/09/18 04:39:35;;;;;;;3.33;0.70;;;13.20;76.00;;;;;;5080498;28;20825;-47
2022/09/18 04:42:02;;;;;;;0.70;0.53;;;13.20;75.70;;;;;;5065062;28;20459;-47
2022/09/18 04:44:29;;;;;;;3.50;0.73;;;13.20;75.60;;;;;;5080949;28;20548;-47
2022/09/18 04:46:56;;;;;;;1.07;0.60;;;13.20;75.80;;;;;;5081855;28;20496;-47
2022/09/18 04:49:22;;;;;;;1.00;0.60;;;13.20;75.70;;;;;;5079833;28;21050;-47
2022/09/18 04:51:49;;;;;;;0.70;0.50;;;13.30;75.60;;;;;;5063824;28;20824;-47
2022/09/18 04:54:16;;;;;;;1.00;0.70;;;13.30;75.80;;;;;;5063531;28;20484;-47
2022/09/18 04:56:42;;;;;;;2.13;0.70;;;13.30;75.70;;;;;;5065116;28;20508;-47
2022/09/18 04:59:09;;;;;;;1.40;0.63;;;13.30;75.60;;;;;;5066348;28;20530;-47
2022/09/18 05:01:35;;;;;;;1.43;0.67;;;13.20;75.80;;;;;;5076697;28;20452;-47
2022/09/18 05:04:02;;;;;;;0.73;0.53;;;13.20;75.90;;;;;;5080482;28;20889;-47
2022/09/18 05:06:29;;;;;;;1.10;0.80;;;13.20;75.90;;;;;;5079708;28;20489;-47
2022/09/18 05:08:56;;;;;;;1.70;0.60;;;13.20;76.10;;;;;;5082172;28;20495;-47
2022/09/18 05:11:23;;;;;;;1.80;0.93;;;13.30;75.90;;;;;;5055731;28;20500;-47
2022/09/18 05:13:55;;;;;;;1.50;0.63;;;13.30;75.80;;;;;;5061789;28;20481;-47
2022/09/18 05:16:24;;;;;;;1.87;0.53;;;13.30;75.70;;;;;;5060229;28;20449;-47
2022/09/18 05:18:51;;;;;;;1.97;0.70;;;13.30;75.70;;;;;;5067093;28;20462;-47
2022/09/18 05:21:19;;;;;;;2.67;0.60;;;13.30;75.60;;;;;;5074725;28;20518;-47
2022/09/18 05:23:46;;;;;;;1.13;0.60;;;13.30;75.40;;;;;;5064606;28;20445;-47
2022/09/18 05:26:13;;;;;;;1.27;0.50;;;13.30;75.30;;;;;;5062872;28;20460;-47
2022/09/18 05:28:40;;;;;;;2.77;0.57;;;13.30;75.60;;;;;;5061380;28;20541;-47
2022/09/18 05:31:07;;;;;;;3.27;0.70;;;13.30;75.60;;;;;;5077554;28;20865;-47
2022/09/18 05:33:35;;;;;;;0.80;0.40;;;13.30;75.90;;;;;;5079205;28;21028;-47
2022/09/18 05:36:03;;;;;;;0.60;0.40;;;13.30;75.90;;;;;;5076610;28;20597;-47
2022/09/18 05:38:30;;;;;;;0.70;0.70;;;13.30;75.70;;;;;;5077022;28;20449;-48
2022/09/18 05:41:00;;;;;;;2.00;0.67;;;13.30;75.50;;;;;;5062994;28;20453;-47
2022/09/18 05:43:28;;;;;;;2.53;0.80;;;13.30;75.70;;;;;;5078649;28;20462;-47
2022/09/18 05:45:55;;;;;;;3.60;0.67;;;13.30;75.90;;;;;;5057300;28;20457;-48
2022/09/18 05:48:21;;;;;;;0.40;0.40;;;13.20;76.30;;;;;;5075241;28;20496;-47
2022/09/18 05:50:50;;;;;;;0.90;0.40;;;13.20;76.40;;;;;;5076364;28;20519;-47
2022/09/18 05:53:18;;;;;;;2.80;0.80;;;13.20;76.40;;;;;;5066813;28;20515;-47
2022/09/18 05:55:45;;;;;;;1.00;0.50;;;13.20;76.80;;;;;;5077153;28;20522;-47
2022/09/18 05:58:14;;;;;;;0.83;0.77;;;13.20;76.90;;;;;;5077774;28;20469;-47
2022/09/18 06:00:43;;;;;;;0.53;0.47;;;13.20;76.70;;;;;;5073444;28;20522;-47
2022/09/18 06:03:12;;;;;;;0.60;0.50;;;13.20;76.70;;;;;;5065778;28;20466;-47
2022/09/18 06:05:40;;;;;;;0.70;0.70;;;13.20;76.60;;;;;;5063657;28;20484;-47
2022/09/18 06:08:08;;;;;;;3.50;0.63;;;13.20;76.70;;;;;;5074783;28;20454;-47
2022/09/18 06:10:38;;;;;;;2.70;0.90;;;13.20;76.90;;;;;;5079631;28;20958;-47
2022/09/18 06:13:04;;;;;;;1.00;0.50;;;13.20;76.80;;;;;;5077199;28;20464;-47
2022/09/18 06:15:32;;;;;;;1.40;0.53;;;13.20;77.20;;;;;;5075113;28;20489;-47
2022/09/18 06:17:59;;;;;;;2.33;0.40;;;13.20;77.20;;;;;;5070976;28;20498;-47
2022/09/18 06:20:26;;;;;;;0.60;0.53;;;13.20;77.10;;;;;;5072632;28;20457;-47
2022/09/18 06:22:53;;;;;;;2.73;0.70;;;13.20;77.10;;;;;;5073244;28;20814;-47
2022/09/18 06:25:20;;;;;;;1.57;0.60;;;13.20;77.20;;;;;;5078630;28;20489;-48
2022/09/18 06:27:52;;;;;;;1.23;0.40;;;13.20;77.40;;;;;;5076665;28;20455;-47
2022/09/18 06:30:19;;;;;;;0.87;0.47;;;13.20;77.60;;;;;;5077099;28;20506;-47
2022/09/18 06:32:45;;;;;;;1.93;0.43;;;13.20;77.80;;;;;;5076880;28;20533;-47
2022/09/18 06:35:12;;;;;;;2.10;0.50;;;13.20;78.00;;;;;;5063368;28;20515;-47
2022/09/18 06:37:38;;;;;;;0.53;0.40;;;13.30;77.90;;;;;;5070444;28;20484;-47
2022/09/18 06:40:06;;;;;;;1.53;0.40;;;13.30;78.00;;;;;;5059529;28;20519;-47
2022/09/18 06:42:32;;;;;;;1.03;0.53;;;13.30;78.40;;;;;;5059844;28;20464;-47
2022/09/18 06:44:59;;;;;;;0.60;0.50;;;13.30;78.30;;;;;;5077195;28;21012;-47
2022/09/18 06:47:26;;;;;;;0.50;0.43;;;13.30;78.50;;;;;;5058506;28;20468;-47
2022/09/18 06:49:52;;;;;;;0.90;0.40;;;13.30;78.60;;;;;;5078128;28;20500;-47
2022/09/18 06:52:19;;;;;;;0.40;0.30;;;13.30;78.70;;;;;;5047653;28;20885;-47
2022/09/18 06:54:45;;;;;;;0.40;0.30;;;13.30;78.80;;;;;;5053378;28;20898;-47
2022/09/18 06:57:12;;;;;;;2.10;0.40;;;13.40;79.00;;;;;;5075784;28;21102;-47
2022/09/18 06:59:38;;;;;;;0.40;0.30;;;13.40;78.90;;;;;;5058783;28;20462;-47
2022/09/18 07:02:12;;;;;;;0.50;0.40;;;13.40;79.00;;;;;;5072605;28;20458;-47
2022/09/18 07:04:45;;;;;;;1.27;0.40;;;13.40;79.00;;;;;;5067555;28;20467;-47
2022/09/18 07:07:12;;;;;;;0.50;0.30;;;13.40;79.40;;;;;;5076680;28;20453;-47
2022/09/18 07:09:39;;;;;;;0.60;0.30;;;13.40;79.70;;;;;;5074494;28;20504;-47
2022/09/18 07:12:05;;;;;;;1.00;0.40;;;13.40;79.90;;;;;;5075465;28;20719;-47
2022/09/18 07:14:32;;;;;;;1.57;0.63;;;13.40;79.90;;;;;;5072571;28;20586;-48
2022/09/18 07:16:59;;;;;;;0.60;0.40;;;13.40;79.90;;;;;;5072179;28;20510;-47
2022/09/18 07:19:25;;;;;;;0.40;0.40;;;13.50;80.10;;;;;;5062728;28;21049;-47
2022/09/18 07:21:52;;;;;;;0.50;0.30;;;13.40;80.20;;;;;;5059045;28;20462;-47
2022/09/18 07:24:18;;;;;;;1.77;0.60;;;13.40;80.40;;;;;;5060915;28;20493;-47
2022/09/18 07:26:45;;;;;;;1.00;0.53;;;13.50;80.20;;;;;;5075837;28;20497;-48
2022/09/18 07:29:12;;;;;;;0.40;0.40;;;13.40;80.10;;;;;;5075895;28;20465;-47
2022/09/18 07:31:38;;;;;;;0.50;0.40;;;13.40;80.30;;;;;;5071899;28;20476;-47
2022/09/18 07:34:07;;;;;;;0.40;0.30;;;13.50;80.30;;;;;;5076575;28;20481;-47
2022/09/18 07:36:33;;;;;;;2.30;0.53;;;13.50;80.50;;;;;;5076317;28;20457;-47
2022/09/18 07:39:00;;;;;;;0.80;0.73;;;13.50;80.60;;;;;;5076664;28;20524;-47
2022/09/18 07:41:27;;;;;;;0.57;0.47;;;13.50;80.70;;;;;;5074673;28;20521;-47
2022/09/18 07:43:53;;;;;;;1.37;0.57;;;13.50;80.70;;;;;;5079239;28;20530;-47
2022/09/18 07:46:20;;;;;;;0.50;0.43;;;13.60;80.90;;;;;;5057017;28;20859;-47
2022/09/18 07:48:47;;;;;;;3.43;0.50;;;13.60;81.00;;;;;;5061878;28;20520;-47
2022/09/18 07:51:14;;;;;;;0.60;0.37;;;13.60;80.70;;;;;;5068372;28;20484;-47
2022/09/18 07:53:41;;;;;;;0.80;0.40;;;13.60;80.60;;;;;;5072551;28;20457;-47
2022/09/18 07:56:11;;;;;;;0.40;0.30;;;13.60;80.40;;;;;;5074772;28;20527;-47
2022/09/18 07:58:38;;;;;;;1.07;0.53;;;13.70;80.40;;;;;;5075385;28;20477;-47
2022/09/18 08:01:05;;;;;;;3.03;0.70;;;13.70;80.10;;;;;;5070537;28;21050;-47
2022/09/18 08:03:32;;;;;;;0.70;0.33;;;13.70;79.80;;;;;;5073695;28;21105;-47
2022/09/18 08:06:03;;;;;;;1.10;0.70;;;13.80;79.50;;;;;;5075098;28;20544;-47
2022/09/18 08:08:30;;;;;;;1.33;0.83;;;13.80;79.70;;;;;;5061123;28;20514;-47
2022/09/18 08:10:58;;;;;;;0.67;0.60;;;13.80;79.10;;;;;;5056982;28;20461;-47
2022/09/18 08:13:25;;;;;;;0.60;0.50;;;13.80;79.20;;;;;;5076067;28;20969;-47
2022/09/18 08:15:52;;;;;;;1.00;0.50;;;13.90;78.50;;;;;;5076450;28;20543;-47
2022/09/18 08:18:20;;;;;;;0.83;0.53;;;13.90;78.40;;;;;;5072175;28;20449;-50
2022/09/18 08:20:47;;;;;;;3.10;0.60;;;13.90;78.70;;;;;;5058475;28;20456;-47
2022/09/18 08:23:13;;;;;;;0.67;0.53;;;14.00;78.20;;;;;;5075956;28;20498;-47
2022/09/18 08:25:41;;;;;;;1.00;0.90;;;14.00;78.10;;;;;;5077547;28;20465;-47
2022/09/18 08:28:08;;;;;;;1.37;0.70;;;14.10;77.90;;;;;;5060828;28;20839;-47
2022/09/18 08:30:35;;;;;;;1.27;0.70;;;14.10;77.40;;;;;;5075068;28;20490;-47
2022/09/18 08:33:04;;;;;;;3.03;2.50;;;14.10;77.20;;;;;;5072594;28;21215;-47
2022/09/18 08:35:32;;;;;;;1.00;0.90;;;14.20;76.70;;;;;;5059135;28;21199;-47
2022/09/18 08:38:00;;;;;;;0.80;0.80;;;14.20;76.60;;;;;;5059640;28;20518;-47
2022/09/18 08:41:10;;;;;;;2.37;1.70;;;14.20;77.10;;;;;;5072091;28;20482;-47
2022/09/18 08:43:43;;;;;;;1.50;1.27;;;14.20;77.10;;;;;;5050782;28;21317;-46
2022/09/18 08:46:17;;;;;;;1.50;1.20;;;14.20;77.30;;;;;;5081754;28;20457;-46
2022/09/18 08:48:58;;;;;;;1.67;1.57;;;14.20;77.30;;;;;;5080786;28;20452;-46
2022/09/18 08:51:33;;;;;;;1.80;1.17;;;14.30;76.80;;;;;;5079793;28;20457;-46
2022/09/18 08:54:37;;;;;;;3.53;2.33;;;14.30;76.60;;;;;;5061737;28;21018;-46
2022/09/18 08:57:12;;;;;;;2.80;1.73;;;14.40;76.10;;;;;;5078717;28;20896;-46
2022/09/18 08:59:46;;;;;;;4.47;1.90;;;14.40;75.60;;;;;;5080213;28;20456;-46
2022/09/18 09:02:27;;;;;;;2.00;1.80;;;14.40;75.80;;;;;;5061286;28;20495;-46
2022/09/18 09:04:57;;;;;;;2.73;1.80;;;14.50;75.60;;;;;;5082334;28;20500;-46
2022/09/18 09:07:32;;;;;;;4.10;1.77;;;14.50;75.20;;;;;;5079609;28;20454;-46
2022/09/18 09:10:03;;;;;;;3.90;1.50;;;14.50;74.40;;;;;;5080207;28;20486;-46
2022/09/18 09:12:29;;;;;;;1.83;1.50;;;14.50;74.50;;;;;;5081372;28;20456;-46
2022/09/18 09:15:28;;;;;;;1.93;1.80;;;14.60;73.90;;;;;;5069030;28;20541;-46
2022/09/18 09:18:06;;;;;;;2.70;1.50;;;14.60;74.00;;;;;;5081835;28;20461;-46
2022/09/18 09:20:49;;;;;;;1.60;1.40;;;14.60;74.10;;;;;;5081535;28;20441;-46
2022/09/18 09:23:37;;;;;;;3.20;1.23;;;14.60;73.70;;;;;;5082523;28;20480;-46
2022/09/18 09:26:09;;;;;;;3.13;1.57;;;14.60;73.60;;;;;;5077452;28;20472;-46
2022/09/18 09:28:58;;;;;;;2.13;1.43;;;14.60;73.40;;;;;;5070577;28;20469;-46
2022/09/18 09:31:47;;;;;;;5.10;1.27;;;14.60;74.00;;;;;;5078493;28;20884;-46
2022/09/18 09:34:39;;;;;;;2.27;1.33;;;14.60;73.50;;;;;;5081573;28;20523;-46
2022/09/18 09:37:14;;;;;;;1.67;1.30;;;14.60;72.30;;;;;;5083647;28;20456;-46
2022/09/18 09:39:52;;;;;;;5.10;1.20;;;14.60;72.80;;;;;;5081895;28;20550;-46
2022/09/18 09:42:29;;;;;;;3.87;2.70;;;14.70;72.80;;;;;;5079535;28;20461;-47
2022/09/18 09:45:17;;;;;;;5.30;1.63;;;14.80;73.60;;;;;;5083913;28;21007;-47
2022/09/18 09:48:09;;;;;;;3.07;1.27;;;14.80;72.80;;;;;;5078499;28;20479;-47
2022/09/18 09:50:57;;;;;;;2.00;1.17;;;14.90;72.50;;;;;;5078619;28;20488;-47
2022/09/18 09:53:25;;;;;;;5.40;1.60;;;14.90;72.40;;;;;;5067970;28;20523;-47
2022/09/18 09:56:27;;;;;;;2.50;1.53;;;14.90;72.70;;;;;;5060885;28;21059;-47
2022/09/18 09:59:06;;;;;;;1.40;1.10;;;15.00;72.70;;;;;;5028842;28;20459;-47
2022/09/18 10:01:48;;;;;;;2.70;1.60;;;15.00;73.20;;;;;;5077365;28;20552;-47
2022/09/18 10:04:43;;;;;;;1.43;1.20;;;15.00;73.00;;;;;;5064672;28;20492;-47
2022/09/18 10:07:31;;;;;;;1.17;1.10;;;15.10;72.80;;;;;;5078384;28;20875;-47
2022/09/18 10:10:22;;;;;;;1.97;1.10;;;15.10;72.00;;;;;;5077136;28;20472;-47
2022/09/18 10:12:57;;;;;;;2.13;1.33;;;15.10;72.20;;;;;;5078690;28;20445;-47
2022/09/18 10:15:30;;;;;;;1.93;1.00;;;15.10;72.50;;;;;;5080309;28;20563;-47
2022/09/18 10:18:00;;;;;;;4.50;1.00;;;15.10;71.30;;;;;;5067498;28;20460;-47
2022/09/18 10:20:30;;;;;;;2.43;0.80;;;15.20;71.30;;;;;;5076394;28;20542;-47
2022/09/18 10:23:22;;;;;;;1.53;1.00;;;15.20;71.70;;;;;;5072764;28;21223;-47
2022/09/18 10:25:58;;;;;;;1.60;0.90;;;15.10;72.60;;;;;;5075815;28;20493;-47
2022/09/18 10:28:28;;;;;;;2.80;0.93;;;15.20;71.50;;;;;;5060492;28;20547;-47
2022/09/18 10:31:04;;;;;;;2.00;0.80;;;15.20;71.40;;;;;;5073365;28;20515;-47
2022/09/18 10:33:35;;;;;;;1.37;0.60;;;15.20;71.10;;;;;;5064968;28;20441;-47
2022/09/18 10:36:36;;;;;;;5.70;0.80;;;15.30;70.00;;;;;;5076657;28;20538;-47
2022/09/18 10:39:37;;;;;;;1.67;0.70;;;15.20;70.10;;;;;;5051992;28;20457;-47
2022/09/18 10:42:05;;;;;;;1.20;0.83;;;15.20;70.60;;;;;;5070520;28;21149;-47
2022/09/18 10:44:36;;;;;;;1.13;0.83;;;15.20;70.30;;;;;;5064103;28;20454;-47
2022/09/18 10:47:08;;;;;;;0.70;0.70;;;15.20;69.70;;;;;;5075901;28;20524;-47
2022/09/18 10:50:19;;;;;;;2.10;0.90;;;15.20;70.10;;;;;;5060410;28;20494;-47
2022/09/18 10:52:47;;;;;;;1.23;1.13;;;15.20;69.20;;;;;;5041587;28;20518;-48
2022/09/18 10:55:21;;;;;;;1.53;1.10;;;15.20;69.80;;;;;;5073684;28;21202;-47
2022/09/18 10:57:47;;;;;;;2.20;0.97;;;15.10;70.30;;;;;;5059296;28;20472;-47
2022/09/18 11:00:20;;;;;;;3.33;1.40;;;15.10;70.10;;;;;;5063303;28;20525;-48
2022/09/18 11:02:53;;;;;;;1.37;1.07;;;15.10;70.30;;;;;;5076642;28;20461;-47
2022/09/18 11:05:28;;;;;;;1.27;1.07;;;15.10;70.00;;;;;;5071077;28;20877;-47
2022/09/18 11:07:58;;;;;;;1.47;0.80;;;15.20;70.00;;;;;;5055458;28;20495;-47
2022/09/18 11:10:27;;;;;;;1.60;1.30;;;15.20;70.00;;;;;;5077188;28;20449;-47
2022/09/18 11:12:56;;;;;;;3.20;1.00;;;15.20;70.00;;;;;;5064785;28;20497;-47
2022/09/18 11:15:27;;;;;;;1.20;1.10;;;15.20;70.10;;;;;;5060859;28;20485;-47
2022/09/18 11:17:56;;;;;;;1.73;1.50;;;15.20;70.40;;;;;;5065468;28;20530;-47
2022/09/18 11:20:27;;;;;;;8.83;1.17;;;15.20;70.10;;;;;;5058884;28;20522;-47
2022/09/18 11:23:12;;;;;;;1.00;1.00;;;15.20;70.40;;;;;;5057568;28;20866;-47
2022/09/18 11:25:38;;;;;;;1.20;1.10;;;15.20;70.00;;;;;;5078277;28;20464;-47
2022/09/18 11:28:28;;;;;;;1.40;1.20;;;15.20;69.60;;;;;;5058263;28;20461;-47
2022/09/18 11:31:04;;;;;;;2.87;1.37;;;15.20;69.80;;;;;;5071853;28;21029;-47
2022/09/18 11:33:55;;;;;;;1.50;1.40;;;15.20;69.50;;;;;;5060264;28;20467;-47
2022/09/18 11:36:25;;;;;;;1.37;1.27;;;15.10;70.10;;;;;;5072983;28;20577;-47
2022/09/18 11:38:53;;;;;;;3.03;1.27;;;15.10;69.70;;;;;;5067526;28;20488;-47
2022/09/18 11:41:23;;;;;;;5.07;1.43;;;15.10;70.20;;;;;;5059832;28;20502;-47
2022/09/18 11:44:20;;;;;;;1.63;1.50;;;15.10;69.90;;;;;;5075486;28;20498;-47
2022/09/18 11:47:05;;;;;;;1.83;1.23;;;15.10;69.60;;;;;;5057384;28;20452;-47
2022/09/18 11:49:54;;;;;;;1.27;1.17;;;15.10;69.80;;;;;;5063172;28;20454;-47
2022/09/18 11:52:35;;;;;;;1.87;1.13;;;15.00;69.80;;;;;;5072794;28;20503;-47
2022/09/18 11:55:06;;;;;;;1.50;1.20;;;15.00;70.30;;;;;;5039984;28;20510;-48
2022/09/18 11:57:43;;;;;;;2.53;1.40;;;15.00;70.60;;;;;;5073057;28;20507;-47
2022/09/18 12:00:18;;;;;;;1.97;1.30;;;15.00;71.00;;;;;;5073697;28;20457;-47
2022/09/18 12:03:25;;;;;;;1.80;1.03;;;15.10;70.60;;;;;;5071436;28;20500;-47
2022/09/18 12:05:56;;;;;;;1.97;1.37;;;15.10;71.30;;;;;;5002037;28;20671;-47
2022/09/18 12:08:42;;;;;;;2.27;1.27;;;15.00;71.20;;;;;;5052397;28;20529;-47
2022/09/18 12:11:39;;;;;;;2.43;1.60;;;15.10;70.00;;;;;;5057943;28;20557;-47
2022/09/18 12:14:14;;;;;;;2.87;1.23;;;15.10;70.50;;;;;;5066666;28;20484;-47
2022/09/18 12:16:47;;;;;;;2.20;1.33;;;15.10;71.10;;;;;;5074877;28;20545;-48
2022/09/18 12:19:23;;;;;;;1.97;1.87;;;15.10;71.30;;;;;;5075001;28;20459;-47
2022/09/18 12:21:49;;;;;;;2.27;0.87;;;15.20;70.90;;;;;;5063635;28;20501;-47
2022/09/18 12:24:17;;;;;;;5.40;1.27;;;15.20;70.70;;;;;;5074199;28;20449;-47
2022/09/18 12:27:04;;;;;;;4.10;1.20;;;15.10;70.90;;;;;;5076211;28;20867;-47
2022/09/18 12:30:03;;;;;;;2.00;1.13;;;15.10;70.90;;;;;;5077202;28;20444;-47
2022/09/18 12:32:54;;;;;;;1.83;1.57;;;15.20;69.80;;;;;;5052691;28;20465;-47
2022/09/18 12:35:46;;;;;;;5.50;1.20;;;15.20;69.10;;;;;;5078093;28;20902;-46
2022/09/18 12:38:25;;;;;;;1.47;1.07;;;15.20;69.70;;;;;;5075814;28;20548;-46
2022/09/18 12:41:13;;;;;;;1.47;1.07;;;15.30;69.10;;;;;;5066713;28;20450;-46
2022/09/18 12:43:43;;;;;;;4.40;1.20;;;15.30;69.00;;;;;;5078615;28;21070;-46
2022/09/18 12:46:25;;;;;;;2.33;1.23;;;15.30;69.60;;;;;;5080128;28;20465;-46
2022/09/18 12:49:15;;;;;;;1.73;0.90;;;15.30;66.80;;;;;;5063081;28;20471;-46
2022/09/18 12:51:47;;;;;;;2.30;1.23;;;15.30;66.80;;;;;;5062689;28;20465;-46
2022/09/18 12:54:17;;;;;;;1.80;1.03;;;15.30;67.00;;;;;;5066824;28;20482;-46
2022/09/18 12:57:08;;;;;;;1.83;1.33;;;15.30;66.90;;;;;;5069449;28;20511;-46
2022/09/18 12:59:41;;;;;;;2.20;1.30;;;15.30;66.30;;;;;;5069297;28;20487;-46
2022/09/18 13:02:31;;;;;;;3.67;0.90;;;15.30;65.60;;;;;;5076122;28;20480;-46
2022/09/18 13:05:19;;;;;;;3.43;1.80;;;15.40;65.30;;;;;;5073007;28;21042;-46
2022/09/18 13:07:56;;;;;;;1.63;0.87;;;15.30;65.90;;;;;;5082478;28;20457;-46
2022/09/18 13:10:36;;;;;;;0.90;0.90;;;15.40;65.60;;;;;;5083218;28;20460;-46
2022/09/18 13:13:27;;;;;;;2.30;1.40;;;15.40;64.60;;;;;;5065023;28;20503;-46
2022/09/18 13:16:02;;;;;;;2.30;0.97;;;15.30;65.00;;;;;;5070484;28;20573;-46
2022/09/18 13:18:53;;;;;;;2.97;1.00;;;15.30;65.80;;;;;;5070358;28;20513;-46
2022/09/18 13:21:27;;;;;;;1.23;1.13;;;15.30;66.10;;;;;;5077226;28;20519;-46